Latest Coastal Weather Observations for Albany Airport

IDW60701

Issued at 11:55 pm WST Friday 28 November 2014 (issued every 10 minutes, with the page automatically refreshed every 10 minutes)

About coastal observations | Map of coastal stations | Coastal observations for WA | Marine services | Other Formats
Station Details ID: 009999 Name: ALBANY AIRPORT Lat: -34.94 Lon: 117.82 Height: 68.4 m
Data from the previous 72 hours. | See also: Recent months at Albany Airport
Date/Time
WST
Temp

°C
Wind Pressure Rain
since 9am
mm
Weather Cloud Vis
km
Sea
Height
m
Swell
Dir
 
Speed
knots
Gust
knots
hPa Trend Height
m
Period
s
Dir
28/11:44pm 16.9 SW 6 8 1011.7 - 0.8 - Partly cloudy 5 - - - -
28/11:30pm 16.9 SW 9 13 1011.8 - 0.8 - Partly cloudy 5 - - - -
28/11:23pm 17.0 WSW 9 13 1011.8 - 0.8 - Partly cloudy 6 - - - -
28/11:21pm 17.1 WSW 9 12 1011.8 - 0.8 - Partly cloudy 9 - - - -
28/11:03pm 17.2 WSW 9 13 1012.0 - 0.6 - Partly cloudy 6 - - - -
28/11:00pm 17.2 WSW 8 12 1012.0 - 0.6 - Partly cloudy 10 - - - -
28/10:30pm 17.4 W 7 9 1012.0 - 0.6 - Partly cloudy 10 - - - -
28/10:27pm 17.4 W 6 9 1012.0 - 0.2 - Partly cloudy 10 - - - -
28/10:00pm 17.4 W 7 9 1012.2 - 0.2 - Partly cloudy 10 - - - -
28/09:30pm 17.5 WSW 7 9 1012.1 - 0.2 - Partly cloudy 10 - - - -
28/09:00pm 17.5 WSW 7 10 1011.9 - 0.2 - Cloudy 10 - - - -
28/08:43pm 17.5 WSW 5 8 1012.0 - 0.2 - Partly cloudy 10 - - - -
28/08:40pm 17.5 WSW 6 8 1012.0 - 0.2 - Partly cloudy 10 - - - -
28/08:30pm 17.6 WSW 7 12 1011.9 - 0.2 - Partly cloudy 6 - - - -
28/08:19pm 17.7 SW 7 10 1012.0 - 0.2 - Partly cloudy 6 - - - -
28/08:00pm 18.1 SW 9 12 1011.8 - 0.0 - Partly cloudy 10 - - - -
28/07:57pm 18.3 SW 8 11 1011.8 - 0.0 - Partly cloudy 10 - - - -
28/07:30pm 18.7 WSW 9 12 1011.4 - 0.0 - Partly cloudy 10 - - - -
28/07:00pm 18.9 WSW 9 13 1011.2 - 0.0 - Partly cloudy 10 - - - -
28/06:40pm 18.8 SW 9 13 1011.0 - 0.0 - Partly cloudy 10 - - - -
28/06:30pm 18.9 SW 9 13 1010.9 - 0.0 - Partly cloudy 10 - - - -
28/06:28pm 18.9 SW 9 13 1010.8 - 0.0 - Partly cloudy 10 - - - -
28/06:00pm 19.7 SW 9 12 1010.5 - 0.0 - Cloudy 10 - - - -
28/05:30pm 20.1 SW 10 13 1009.9 - 0.0 - Partly cloudy 10 - - - -
28/05:09pm 21.2 SSW 11 15 1009.4 - 0.0 - Partly cloudy 10 - - - -
28/05:00pm 21.0 SSW 10 14 1009.4 - 0.0 - Partly cloudy 10 - - - -
28/04:30pm 21.9 SW 12 17 1009.1 - 0.0 - Partly cloudy 10 - - - -
28/04:00pm 21.3 SW 11 14 1009.1 - 0.0 - Partly cloudy 10 - - - -
28/03:30pm 23.0 SSW 10 13 1009.0 - 0.0 - Partly cloudy 10 - - - -
28/03:00pm 22.2 S 9 12 1009.1 R 0.0 Fine Partly cloudy 30 - - - -
28/02:30pm 23.0 SSW 12 16 1008.8 - 0.0 - Mostly clear 10 - - - -
28/02:00pm 22.4 SSW 11 15 1008.9 - 0.0 - Mostly clear 10 - - - -
28/01:30pm 23.6 SSW 9 11 1008.7 - 0.0 - Mostly clear 10 - - - -
28/01:00pm 23.4 SSW 7 11 1009.0 - 0.0 - Mostly clear 10 - - - -
28/12:30pm 22.8 WSW 10 12 1009.0 - 0.0 - Partly cloudy 10 - - - -
28/12:00pm 22.5 SSW 8 12 1009.2 R 0.0 Fine Partly cloudy 30 - - - -
28/11:30am 22.1 SSW 7 10 1009.4 - 0.0 - Partly cloudy 10 - - - -
28/11:00am 21.9 S 8 12 1009.7 - 0.0 - Partly cloudy 10 - - - -
28/10:30am 20.8 WSW 5 8 1009.7 - 0.0 - Mostly clear 10 - - - -
28/10:00am 20.5 W 8 11 1009.7 - 0.0 - Mostly cloudy 10 - - - -
28/09:00am 19.8 W 7 10 1009.7 F 4.0 Haze Mostly cloudy 20 - - - -
28/08:30am 19.3 W 8 12 1009.8 - 4.0 - Mostly cloudy 10 - - - -
28/08:00am 18.4 NW 7 9 1009.8 - 4.0 - Mostly cloudy 10 - - - -
28/07:30am 17.3 WNW 7 10 1010.0 - 4.0 - Mostly cloudy 10 - - - -
28/07:00am 17.1 WNW 6 8 1010.1 - 4.0 - Partly cloudy 10 - - - -
28/06:30am 15.9 WNW 8 10 1010.1 - 4.0 Mist Cloudy 5 - - - -
28/06:00am 15.6 WNW 6 7 1010.2 F 4.0 Distant fog Mostly cloudy 12 - - - -
28/05:47am 15.4 WNW 5 7 1010.2 - 4.0 - Mostly cloudy 10 - - - -
28/05:30am 14.7 W 6 7 1010.0 - 4.0 - Cloudy 10 - - - -
28/05:00am 15.3 N 7 9 1010.2 - 4.0 - Partly cloudy 10 - - - -
28/04:30am 16.2 NNE 5 6 1009.8 - 4.0 - Cloudy 10 - - - -
28/04:00am 16.0 NNE 4 6 1009.7 - 4.0 - Cloudy 10 - - - -
28/03:30am 16.0 ENE 6 7 1009.4 - 4.0 - Cloudy 7 - - - -
28/03:00am 15.8 ENE 7 8 1009.5 - 4.0 - Cloudy 10 - - - -
28/02:55am 15.8 ENE 7 8 1009.3 - 4.0 - Partly cloudy 10 - - - -
28/02:38am 15.2 E 6 8 1009.4 - 4.0 - Partly cloudy 0.7 - - - -
28/02:30am 14.2 ESE 5 6 1009.4 - 4.0 - Partly cloudy 0.5 - - - -
28/02:00am 14.6 ESE 4 4 1009.2 - 4.0 - - 0.6 - - - -
28/01:30am 14.7 ESE 3 5 1009.1 - 4.0 - - 0.5 - - - -
28/01:00am 14.9 CALM 0 0 1008.8 - 4.0 - - 1 - - - -
28/12:50am 15.3 CALM 0 0 1008.9 - 4.0 - - 6 - - - -
28/12:30am 15.5 ENE 3 4 1009.1 - 4.0 - - 10 - - - -
28/12:00am 16.0 ENE 8 10 1009.6 - 4.0 - - 10 - - - -
 
Date/Time
WST
Temp

°C
Wind Pressure Rain
since 9am
mm
Weather Cloud Vis
km
Sea
Height
m
Swell
Dir
 
Speed
knots
Gust
knots
hPa Trend Height
m
Period
s
Dir
27/11:30pm 15.7 NNE 4 7 1009.5 - 4.0 - - 10 - - - -
27/11:00pm 15.9 NE 5 6 1009.7 - 3.8 - - 10 - - - -
27/10:30pm 16.7 ENE 7 9 1009.9 - 3.8 - - 10 - - - -
27/10:00pm 17.2 ENE 11 15 1010.4 - 3.8 - Partly cloudy 10 - - - -
27/09:30pm 17.3 ENE 13 17 1011.2 - 3.8 - - 10 - - - -
27/09:00pm 17.3 ENE 15 20 1011.7 - 3.8 - - 10 - - - -
27/08:30pm 17.4 ENE 12 16 1011.7 - 3.8 - Partly cloudy 10 - - - -
27/08:00pm 17.6 NE 11 13 1011.9 - 3.8 - Partly cloudy 8 - - - -
27/07:43pm 17.6 E 11 13 1011.6 - 3.6 - Partly cloudy 8 - - - -
27/07:30pm 17.6 E 8 12 1011.9 - 3.0 - Partly cloudy 6 - - - -
27/07:22pm 17.6 ENE 7 10 1012.4 - 2.8 - Partly cloudy 6 - - - -
27/07:01pm 17.6 NE 8 10 1013.0 - 1.8 - Partly cloudy 8 - - - -
27/07:00pm 17.6 NE 8 10 1013.0 - 1.8 - Partly cloudy 8 - - - -
27/06:43pm 17.7 NNE 8 11 1013.1 - 1.4 - Partly cloudy 6 - - - -
27/06:30pm 17.9 NE 7 10 1012.5 - 1.0 - Partly cloudy 10 - - - -
27/06:00pm 18.4 E 11 14 1011.2 - 1.0 - Mostly cloudy 10 - - - -
27/05:30pm 18.7 ESE 11 15 1011.2 - 1.0 - Partly cloudy 10 - - - -
27/05:29pm 18.7 ESE 12 15 1011.2 - 1.0 - Partly cloudy 10 - - - -
27/05:16pm 18.9 ESE 11 14 1011.6 - 0.8 - Mostly clear 9 - - - -
27/05:00pm 19.5 SSE 6 8 1012.5 - 0.6 Rain Mostly clear 7 - - - -
27/04:58pm 19.6 SSE 5 8 1012.6 - 0.6 Rain Mostly clear 7 - - - -
27/04:30pm 21.1 SSE 6 9 1012.1 - 0.2 - Mostly clear 10 - - - -
27/04:00pm 21.6 SE 9 12 1012.0 - 0.2 - Mostly clear 10 - - - -
27/03:30pm 22.2 SSE 6 9 1012.3 - 0.2 - Mostly clear 10 - - - -
27/03:00pm 22.0 SSE 6 9 1012.3 R 0.2 Haze Mostly cloudy 20 - - - -
27/02:30pm 21.3 ESE 8 11 1012.3 - 0.2 - Mostly clear 10 - - - -
27/02:00pm 20.4 SE 9 11 1012.4 - 0.2 - Mostly clear 10 - - - -
27/01:30pm 19.5 SE 7 10 1012.8 - 0.2 Rain Mostly clear 10 - - - -
27/01:00pm 19.8 SSE 6 9 1012.8 - 0.2 Rain Mostly clear 10 - - - -
27/12:30pm 21.2 SSE 7 8 1012.8 - 0.0 - Mostly clear 10 - - - -
27/12:00pm 22.2 SSE 7 10 1012.7 R 0.0 Haze Mostly cloudy 20 - - - -
27/11:30am 23.5 SSE 4 7 1012.8 - 0.0 - Cloudy 10 - - - -
27/11:00am 23.5 E 5 7 1012.8 - 0.0 - Mostly clear 10 - - - -
27/10:30am 23.5 ENE 5 7 1012.9 - 0.0 - Mostly clear 10 - - - -
27/10:00am 22.9 E 6 9 1012.8 - 0.0 - Partly cloudy 10 - - - -
27/09:30am 22.1 E 7 9 1012.9 - 0.0 - Partly cloudy 10 - - - -
27/09:00am 21.2 ENE 6 9 1013.2 F 0.0 Distant precip. Mostly cloudy 10 - - - -
27/08:30am 20.3 E 8 10 1013.2 - 0.0 - Partly cloudy 10 - - - -
27/08:00am 19.8 E 7 9 1013.3 - 0.0 - Partly cloudy 10 - - - -
27/07:30am 19.0 ESE 7 9 1013.2 - 0.0 - Cloudy 10 - - - -
27/07:00am 18.5 ESE 9 11 1013.0 - 0.0 - Cloudy 10 - - - -
27/06:30am 18.2 ESE 7 10 1013.0 - 0.0 - Cloudy 10 - - - -
27/06:00am 17.7 ESE 7 9 1013.1 R 0.0 Haze Mostly cloudy 20 - - - -
27/05:30am 17.4 E 6 8 1013.1 - 0.0 - Partly cloudy 9 - - - -
27/05:00am 17.5 ESE 7 8 1012.9 - 0.0 - Cloudy 8 - - - -
27/04:30am 17.4 ESE 7 8 1012.6 - 0.0 - Cloudy 8 - - - -
27/04:00am 17.7 SSE 6 8 1012.3 - 0.0 - Partly cloudy 8 - - - -
27/03:30am 17.7 S 3 5 1012.8 - 0.0 - Partly cloudy 7 - - - -
27/03:00am 17.7 SSE 6 9 1012.2 - 0.0 - Cloudy 7 - - - -
27/02:30am 17.6 ENE 5 8 1012.5 - 0.0 - Partly cloudy 7 - - - -
27/02:22am 17.5 E 9 14 1012.5 - 0.0 - Partly cloudy 7 - - - -
27/02:00am 17.4 ESE 9 11 1012.4 - 0.0 - Partly cloudy 8 - - - -
27/01:30am 17.4 ESE 8 11 1013.5 - 0.0 - Cloudy 8 - - - -
27/01:00am 17.1 SE 6 7 1013.9 - 0.0 - Partly cloudy 8 - - - -
27/12:30am 17.0 S 5 6 1014.1 - 0.0 - Partly cloudy 8 - - - -
27/12:00am 17.2 S 3 6 1014.8 - 0.0 - Partly cloudy 9 - - - -
 
Date/Time
WST
Temp

°C
Wind Pressure Rain
since 9am
mm
Weather Cloud Vis
km
Sea
Height
m
Swell
Dir
 
Speed
knots
Gust
knots
hPa Trend Height
m
Period
s
Dir
26/11:30pm 17.5 SSW 5 7 1015.1 - 0.0 - Partly cloudy 9 - - - -
26/11:17pm 17.8 SW 5 6 1015.1 - 0.0 - Partly cloudy 10 - - - -
26/11:00pm 17.9 WNW 4 5 1015.4 - 0.0 - Partly cloudy 10 - - - -
26/10:34pm 17.9 N 6 9 1016.0 - 0.0 - Partly cloudy 9 - - - -
26/10:30pm 17.8 N 6 9 1015.7 - 0.0 - Partly cloudy 9 - - - -
26/10:00pm 17.7 ENE 13 20 1014.7 - 0.0 - Partly cloudy 10 - - - -
26/09:30pm 17.7 ENE 15 20 1014.6 - 0.0 - Partly cloudy 10 - - - -
26/09:00pm 17.6 ENE 16 21 1014.7 - 0.0 - Mostly cloudy 10 - - - -
26/08:30pm 17.5 E 14 22 1014.6 - 0.0 - - 10 - - - -
26/08:00pm 17.3 ENE 11 16 1014.6 - 0.0 - - 10 - - - -
26/07:30pm 17.5 E 13 18 1014.2 - 0.0 - - 10 - - - -
26/07:00pm 17.9 E 17 23 1014.1 - 0.0 - Partly cloudy 10 - - - -
26/06:30pm 18.3 E 16 25 1013.8 - 0.0 - Partly cloudy 10 - - - -
26/06:00pm 19.1 E 13 19 1014.0 - 0.0 - Partly cloudy 10 - - - -
26/05:30pm 19.4 E 14 17 1014.0 - 0.0 - - 10 - - - -
26/05:00pm 20.2 E 15 20 1013.9 - 0.0 - - 10 - - - -
26/04:30pm 20.4 E 16 20 1013.9 - 0.0 - - 10 - - - -
26/04:00pm 21.0 E 15 21 1014.2 - 0.0 - Partly cloudy 10 - - - -
26/03:30pm 21.7 E 18 22 1014.5 - 0.0 - Partly cloudy 10 - - - -
26/03:00pm 22.4 ESE 18 22 1014.8 F 0.0 Smoke Mostly cloudy 12 - - - -
26/02:30pm 21.7 E 16 20 1015.0 - 0.0 - Partly cloudy 10 - - - -
26/02:00pm 22.6 E 17 22 1015.3 - 0.0 - - 10 - - - -
26/01:30pm 23.8 E 19 25 1015.4 - 0.0 - - 10 - - - -
26/01:00pm 23.5 E 18 24 1015.7 - 0.0 - - 10 - - - -
26/12:30pm 23.5 E 16 20 1016.1 - 0.0 - - 10 - - - -
26/12:00pm 22.3 E 17 22 1016.5 F 0.0 Fine Mostly cloudy 30 - - - -
26/11:30am 22.4 E 18 23 1016.8 - 0.0 - - 10 - - - -
26/11:00am 22.4 E 17 22 1017.1 - 0.0 - - 10 - - - -
26/10:30am 22.9 E 16 22 1017.7 - 0.0 - - 10 - - - -
26/10:00am 22.2 E 14 18 1018.2 - 0.0 - - 10 - - - -
26/09:30am 22.0 E 15 19 1018.7 - 0.0 - Mostly clear 10 - - - -
26/09:00am 21.4 E 14 21 1019.1 F 0.0 Fine Partly cloudy 30 - - - -
26/08:30am 20.4 E 16 21 1019.2 - 0.0 - Mostly clear 10 - - - -
26/08:00am 20.0 ENE 16 22 1019.6 - 0.0 - Mostly clear 10 - - - -
26/07:30am 18.9 ENE 15 21 1019.7 - 0.0 - Mostly clear 10 - - - -
26/07:00am 17.7 ENE 14 19 1020.0 - 0.0 - Mostly clear 10 - - - -
26/06:30am 16.9 ENE 13 18 1019.9 - 0.0 - Mostly clear 10 - - - -
26/06:00am 15.7 ENE 10 12 1020.2 R 0.0 Fine Mostly cloudy 25 - - - -
26/05:30am 14.7 ENE 7 9 1020.0 - 0.0 - Cloudy 10 - - - -
26/05:00am 14.3 E 7 8 1019.8 - 0.0 - Cloudy 10 - - - -
26/04:30am 13.9 ENE 8 9 1019.4 - 0.0 - Partly cloudy 10 - - - -
26/04:00am 14.2 E 8 11 1019.1 - 0.0 - Partly cloudy 10 - - - -
26/03:30am 14.4 E 9 11 1019.2 - 0.0 - Partly cloudy 10 - - - -
26/03:00am 14.0 E 9 11 1019.3 - 0.0 - Mostly clear 10 - - - -
26/02:30am 14.1 ENE 8 11 1019.5 - 0.0 - Cloudy 10 - - - -
26/02:00am 13.7 E 9 11 1019.6 - 0.0 - Partly cloudy 10 - - - -
26/01:30am 13.2 E 9 12 1019.9 - 0.0 - Partly cloudy 10 - - - -
26/01:00am 13.4 E 8 11 1020.2 - 0.0 - - 10 - - - -
26/12:30am 13.5 E 9 13 1020.4 - 0.0 - - 10 - - - -
26/12:00am 13.6 E 9 12 1020.8 - 0.0 - - 10 - - - -

Other Formats:

Comma delimited format used in spreadsheet applications
http://www.bom.gov.au/fwo/IDW60701/IDW60701.94802.axf

JavaScript Object Notation format (JSON) in row-major order
http://www.bom.gov.au/fwo/IDW60701/IDW60701.94802.json